Terminal Aerodrome Forecast
Issued by NWS Atlanta, GA

Home | Current Version | Previous Version | Text Only | Print | Product List | Glossary On
Versions: 1 2 3 4 5 6 7 8 9 10 11 12 13 14 15 16 17 18 19 20 21 22 23 24 25 26 27 28 29 30 31 32 33 34 35 36 37 38
477
FTUS42 KFFC 272341
TAFATL
TAF
KATL 272341Z 2800/2906 22004KT P6SM FEW040 SCT100
     FM280200 22003KT P6SM FEW100
     FM281300 24004KT P6SM SCT020 SCT250
     FM281500 26006KT P6SM VCSH BKN030
     FM281700 27009KT P6SM VCSH BKN050 PROB30 2818/2824 VRB18G24KT
      4SM TSRA BKN040CB=

USA.gov is the U.S. government's official web portal to all federal, state and local government web resources and services.